sensor_id;sensor_type;location;lat;lon;timestamp;P1;durP1;ratioP1;P2;durP2;ratioP2
8831;SDS011;4452;50.756;4.472;2023-05-07T00:01:46;13.20;;;6.07;;
8831;SDS011;4452;50.756;4.472;2023-05-07T00:04:12;16.77;;;6.38;;
8831;SDS011;4452;50.756;4.472;2023-05-07T00:06:38;11.27;;;6.05;;
8831;SDS011;4452;50.756;4.472;2023-05-07T00:09:04;15.77;;;6.40;;
8831;SDS011;4452;50.756;4.472;2023-05-07T00:11:30;16.35;;;6.85;;
8831;SDS011;4452;50.756;4.472;2023-05-07T00:13:56;16.52;;;6.10;;
8831;SDS011;4452;50.756;4.472;2023-05-07T00:16:22;8.75;;;6.03;;
8831;SDS011;4452;50.756;4.472;2023-05-07T00:18:48;11.95;;;6.22;;
8831;SDS011;4452;50.756;4.472;2023-05-07T00:21:14;14.25;;;6.63;;
8831;SDS011;4452;50.756;4.472;2023-05-07T00:23:39;13.80;;;6.93;;
8831;SDS011;4452;50.756;4.472;2023-05-07T00:26:05;14.93;;;6.88;;
8831;SDS011;4452;50.756;4.472;2023-05-07T00:28:31;14.75;;;6.57;;
8831;SDS011;4452;50.756;4.472;2023-05-07T00:30:57;16.23;;;6.88;;
8831;SDS011;4452;50.756;4.472;2023-05-07T00:33:22;15.20;;;6.32;;
8831;SDS011;4452;50.756;4.472;2023-05-07T00:35:48;16.70;;;6.75;;
8831;SDS011;4452;50.756;4.472;2023-05-07T00:38:14;11.07;;;6.45;;
8831;SDS011;4452;50.756;4.472;2023-05-07T00:40:40;20.90;;;7.47;;
8831;SDS011;4452;50.756;4.472;2023-05-07T00:43:06;17.63;;;6.55;;
8831;SDS011;4452;50.756;4.472;2023-05-07T00:45:34;13.88;;;6.63;;
8831;SDS011;4452;50.756;4.472;2023-05-07T00:48:00;11.73;;;6.43;;
8831;SDS011;4452;50.756;4.472;2023-05-07T00:50:27;17.95;;;7.00;;
8831;SDS011;4452;50.756;4.472;2023-05-07T00:52:54;10.25;;;6.45;;
8831;SDS011;4452;50.756;4.472;2023-05-07T00:55:21;15.88;;;7.13;;
8831;SDS011;4452;50.756;4.472;2023-05-07T00:57:48;15.68;;;6.72;;
8831;SDS011;4452;50.756;4.472;2023-05-07T01:00:15;14.35;;;6.78;;
8831;SDS011;4452;50.756;4.472;2023-05-07T01:02:43;14.25;;;6.63;;
8831;SDS011;4452;50.756;4.472;2023-05-07T01:05:09;15.88;;;7.25;;
8831;SDS011;4452;50.756;4.472;2023-05-07T01:07:39;12.38;;;7.28;;
8831;SDS011;4452;50.756;4.472;2023-05-07T01:10:06;16.90;;;7.55;;
8831;SDS011;4452;50.756;4.472;2023-05-07T01:12:34;15.77;;;7.78;;
8831;SDS011;4452;50.756;4.472;2023-05-07T01:15:05;14.90;;;7.80;;
8831;SDS011;4452;50.756;4.472;2023-05-07T01:17:36;20.40;;;7.63;;
8831;SDS011;4452;50.756;4.472;2023-05-07T01:20:06;16.60;;;7.45;;
8831;SDS011;4452;50.756;4.472;2023-05-07T01:22:33;13.57;;;6.78;;
8831;SDS011;4452;50.756;4.472;2023-05-07T01:25:01;10.85;;;7.15;;
8831;SDS011;4452;50.756;4.472;2023-05-07T01:27:28;15.00;;;7.07;;
8831;SDS011;4452;50.756;4.472;2023-05-07T01:29:54;15.15;;;7.60;;
8831;SDS011;4452;50.756;4.472;2023-05-07T01:32:26;17.63;;;7.35;;
8831;SDS011;4452;50.756;4.472;2023-05-07T01:35:14;11.52;;;7.53;;
8831;SDS011;4452;50.756;4.472;2023-05-07T01:37:46;13.35;;;7.13;;
8831;SDS011;4452;50.756;4.472;2023-05-07T01:40:12;20.40;;;7.63;;
8831;SDS011;4452;50.756;4.472;2023-05-07T01:42:39;17.02;;;7.65;;
8831;SDS011;4452;50.756;4.472;2023-05-07T01:45:05;19.17;;;7.82;;
8831;SDS011;4452;50.756;4.472;2023-05-07T01:47:31;13.02;;;7.15;;
8831;SDS011;4452;50.756;4.472;2023-05-07T01:49:57;13.70;;;7.25;;
8831;SDS011;4452;50.756;4.472;2023-05-07T01:52:23;12.40;;;6.90;;
8831;SDS011;4452;50.756;4.472;2023-05-07T01:54:50;15.68;;;7.70;;
8831;SDS011;4452;50.756;4.472;2023-05-07T01:57:16;17.55;;;7.88;;
8831;SDS011;4452;50.756;4.472;2023-05-07T01:59:41;14.00;;;7.60;;
8831;SDS011;4452;50.756;4.472;2023-05-07T02:02:07;13.00;;;7.25;;
8831;SDS011;4452;50.756;4.472;2023-05-07T02:04:33;14.70;;;7.18;;
8831;SDS011;4452;50.756;4.472;2023-05-07T02:06:58;17.35;;;7.43;;
8831;SDS011;4452;50.756;4.472;2023-05-07T02:09:24;15.82;;;7.30;;
8831;SDS011;4452;50.756;4.472;2023-05-07T02:11:50;17.02;;;7.75;;
8831;SDS011;4452;50.756;4.472;2023-05-07T02:14:15;12.35;;;7.47;;
8831;SDS011;4452;50.756;4.472;2023-05-07T02:16:41;18.88;;;7.53;;
8831;SDS011;4452;50.756;4.472;2023-05-07T02:19:07;14.60;;;7.20;;
8831;SDS011;4452;50.756;4.472;2023-05-07T02:21:33;14.18;;;6.82;;
8831;SDS011;4452;50.756;4.472;2023-05-07T02:23:58;17.35;;;7.22;;
8831;SDS011;4452;50.756;4.472;2023-05-07T02:26:24;16.05;;;7.20;;
8831;SDS011;4452;50.756;4.472;2023-05-07T02:28:50;17.92;;;7.78;;
8831;SDS011;4452;50.756;4.472;2023-05-07T02:31:17;13.63;;;7.80;;
8831;SDS011;4452;50.756;4.472;2023-05-07T02:33:42;19.98;;;8.18;;
8831;SDS011;4452;50.756;4.472;2023-05-07T02:36:11;19.10;;;8.73;;
8831;SDS011;4452;50.756;4.472;2023-05-07T02:38:38;15.68;;;8.35;;
8831;SDS011;4452;50.756;4.472;2023-05-07T02:41:03;14.32;;;7.50;;
8831;SDS011;4452;50.756;4.472;2023-05-07T02:43:29;20.27;;;8.70;;
8831;SDS011;4452;50.756;4.472;2023-05-07T02:48:28;13.40;;;8.20;;
8831;SDS011;4452;50.756;4.472;2023-05-07T02:50:53;12.82;;;8.35;;
8831;SDS011;4452;50.756;4.472;2023-05-07T02:53:19;13.52;;;7.80;;
8831;SDS011;4452;50.756;4.472;2023-05-07T02:55:45;18.20;;;8.25;;
8831;SDS011;4452;50.756;4.472;2023-05-07T02:58:11;17.55;;;8.38;;
8831;SDS011;4452;50.756;4.472;2023-05-07T03:00:36;16.80;;;8.27;;
8831;SDS011;4452;50.756;4.472;2023-05-07T03:03:02;15.18;;;7.80;;
8831;SDS011;4452;50.756;4.472;2023-05-07T03:05:28;12.45;;;7.40;;
8831;SDS011;4452;50.756;4.472;2023-05-07T03:07:54;16.73;;;7.70;;
8831;SDS011;4452;50.756;4.472;2023-05-07T03:10:19;16.55;;;8.35;;
8831;SDS011;4452;50.756;4.472;2023-05-07T03:12:45;15.05;;;7.50;;
8831;SDS011;4452;50.756;4.472;2023-05-07T03:15:11;16.50;;;7.53;;
8831;SDS011;4452;50.756;4.472;2023-05-07T03:17:37;18.67;;;8.27;;
8831;SDS011;4452;50.756;4.472;2023-05-07T03:20:04;18.77;;;7.72;;
8831;SDS011;4452;50.756;4.472;2023-05-07T03:22:30;12.77;;;7.60;;
8831;SDS011;4452;50.756;4.472;2023-05-07T03:24:55;13.40;;;7.50;;
8831;SDS011;4452;50.756;4.472;2023-05-07T03:27:21;13.82;;;7.28;;
8831;SDS011;4452;50.756;4.472;2023-05-07T03:29:47;15.10;;;7.00;;
8831;SDS011;4452;50.756;4.472;2023-05-07T03:32:13;12.82;;;7.40;;
8831;SDS011;4452;50.756;4.472;2023-05-07T03:34:39;18.00;;;6.95;;
8831;SDS011;4452;50.756;4.472;2023-05-07T03:37:05;12.55;;;6.95;;
8831;SDS011;4452;50.756;4.472;2023-05-07T03:39:31;20.67;;;8.00;;
8831;SDS011;4452;50.756;4.472;2023-05-07T03:41:57;13.27;;;7.20;;
8831;SDS011;4452;50.756;4.472;2023-05-07T03:44:23;10.70;;;7.18;;
8831;SDS011;4452;50.756;4.472;2023-05-07T03:46:48;12.75;;;7.13;;
8831;SDS011;4452;50.756;4.472;2023-05-07T03:49:14;13.73;;;7.03;;
8831;SDS011;4452;50.756;4.472;2023-05-07T03:51:40;11.38;;;7.25;;
8831;SDS011;4452;50.756;4.472;2023-05-07T03:54:05;19.85;;;7.88;;
8831;SDS011;4452;50.756;4.472;2023-05-07T03:56:31;12.55;;;7.38;;
8831;SDS011;4452;50.756;4.472;2023-05-07T03:58:57;20.00;;;7.57;;
8831;SDS011;4452;50.756;4.472;2023-05-07T04:01:23;15.35;;;7.63;;
8831;SDS011;4452;50.756;4.472;2023-05-07T04:03:48;13.02;;;7.22;;
8831;SDS011;4452;50.756;4.472;2023-05-07T04:06:15;13.95;;;7.22;;
8831;SDS011;4452;50.756;4.472;2023-05-07T04:08:42;19.73;;;8.57;;
8831;SDS011;4452;50.756;4.472;2023-05-07T04:11:08;15.93;;;6.95;;
8831;SDS011;4452;50.756;4.472;2023-05-07T04:13:34;16.58;;;7.05;;
8831;SDS011;4452;50.756;4.472;2023-05-07T04:16:01;14.10;;;6.60;;
8831;SDS011;4452;50.756;4.472;2023-05-07T04:18:28;14.70;;;7.00;;
8831;SDS011;4452;50.756;4.472;2023-05-07T04:20:54;21.23;;;7.80;;
8831;SDS011;4452;50.756;4.472;2023-05-07T04:23:20;14.35;;;6.65;;
8831;SDS011;4452;50.756;4.472;2023-05-07T04:25:45;18.95;;;7.13;;
8831;SDS011;4452;50.756;4.472;2023-05-07T04:28:11;15.02;;;6.85;;
8831;SDS011;4452;50.756;4.472;2023-05-07T04:30:37;17.70;;;7.88;;
8831;SDS011;4452;50.756;4.472;2023-05-07T04:33:03;13.90;;;7.50;;
8831;SDS011;4452;50.756;4.472;2023-05-07T04:35:29;14.18;;;7.75;;
8831;SDS011;4452;50.756;4.472;2023-05-07T04:37:56;14.70;;;6.65;;
8831;SDS011;4452;50.756;4.472;2023-05-07T04:40:21;15.43;;;6.95;;
8831;SDS011;4452;50.756;4.472;2023-05-07T04:42:47;19.30;;;7.38;;
8831;SDS011;4452;50.756;4.472;2023-05-07T04:45:13;15.40;;;7.40;;
8831;SDS011;4452;50.756;4.472;2023-05-07T04:47:39;20.77;;;8.13;;
8831;SDS011;4452;50.756;4.472;2023-05-07T04:50:05;20.55;;;8.07;;
8831;SDS011;4452;50.756;4.472;2023-05-07T04:52:33;21.65;;;7.65;;
8831;SDS011;4452;50.756;4.472;2023-05-07T04:54:59;19.02;;;7.30;;
8831;SDS011;4452;50.756;4.472;2023-05-07T04:57:26;13.43;;;7.35;;
8831;SDS011;4452;50.756;4.472;2023-05-07T04:59:52;16.73;;;8.20;;
8831;SDS011;4452;50.756;4.472;2023-05-07T05:02:18;16.13;;;7.40;;
8831;SDS011;4452;50.756;4.472;2023-05-07T05:04:44;13.43;;;7.22;;
8831;SDS011;4452;50.756;4.472;2023-05-07T05:07:10;16.35;;;7.72;;
8831;SDS011;4452;50.756;4.472;2023-05-07T05:09:36;23.73;;;7.80;;
8831;SDS011;4452;50.756;4.472;2023-05-07T05:12:02;14.57;;;7.78;;
8831;SDS011;4452;50.756;4.472;2023-05-07T05:14:28;13.98;;;7.63;;
8831;SDS011;4452;50.756;4.472;2023-05-07T05:16:54;13.93;;;6.85;;
8831;SDS011;4452;50.756;4.472;2023-05-07T05:19:20;17.63;;;7.82;;
8831;SDS011;4452;50.756;4.472;2023-05-07T05:21:46;11.85;;;7.05;;
8831;SDS011;4452;50.756;4.472;2023-05-07T05:24:11;14.95;;;7.18;;
8831;SDS011;4452;50.756;4.472;2023-05-07T05:26:37;14.27;;;8.20;;
8831;SDS011;4452;50.756;4.472;2023-05-07T05:29:03;11.98;;;6.95;;
8831;SDS011;4452;50.756;4.472;2023-05-07T05:31:29;14.27;;;7.68;;
8831;SDS011;4452;50.756;4.472;2023-05-07T05:33:55;13.20;;;6.35;;
8831;SDS011;4452;50.756;4.472;2023-05-07T05:36:20;15.82;;;6.97;;
8831;SDS011;4452;50.756;4.472;2023-05-07T05:38:46;13.38;;;6.80;;
8831;SDS011;4452;50.756;4.472;2023-05-07T05:41:12;10.05;;;6.47;;
8831;SDS011;4452;50.756;4.472;2023-05-07T05:43:37;16.15;;;6.68;;
8831;SDS011;4452;50.756;4.472;2023-05-07T05:46:03;14.15;;;7.18;;
8831;SDS011;4452;50.756;4.472;2023-05-07T05:48:35;15.07;;;7.63;;
8831;SDS011;4452;50.756;4.472;2023-05-07T05:51:01;15.35;;;7.90;;
8831;SDS011;4452;50.756;4.472;2023-05-07T05:53:27;12.27;;;7.88;;
8831;SDS011;4452;50.756;4.472;2023-05-07T05:55:52;14.70;;;7.55;;
8831;SDS011;4452;50.756;4.472;2023-05-07T05:58:18;11.75;;;7.57;;
8831;SDS011;4452;50.756;4.472;2023-05-07T06:00:44;14.02;;;7.68;;
8831;SDS011;4452;50.756;4.472;2023-05-07T06:03:10;11.80;;;6.95;;
8831;SDS011;4452;50.756;4.472;2023-05-07T06:05:36;14.50;;;6.65;;
8831;SDS011;4452;50.756;4.472;2023-05-07T06:08:02;14.52;;;7.25;;
8831;SDS011;4452;50.756;4.472;2023-05-07T06:10:28;11.65;;;6.40;;
8831;SDS011;4452;50.756;4.472;2023-05-07T06:12:55;15.55;;;6.68;;
8831;SDS011;4452;50.756;4.472;2023-05-07T06:15:20;13.65;;;6.18;;
8831;SDS011;4452;50.756;4.472;2023-05-07T06:17:46;13.05;;;5.85;;
8831;SDS011;4452;50.756;4.472;2023-05-07T06:20:12;12.77;;;5.65;;
8831;SDS011;4452;50.756;4.472;2023-05-07T06:22:37;11.95;;;4.68;;
8831;SDS011;4452;50.756;4.472;2023-05-07T06:25:03;13.85;;;5.10;;
8831;SDS011;4452;50.756;4.472;2023-05-07T06:27:29;9.73;;;5.20;;
8831;SDS011;4452;50.756;4.472;2023-05-07T06:29:55;9.80;;;4.72;;
8831;SDS011;4452;50.756;4.472;2023-05-07T06:32:21;12.85;;;5.38;;
8831;SDS011;4452;50.756;4.472;2023-05-07T06:34:46;9.23;;;4.63;;
8831;SDS011;4452;50.756;4.472;2023-05-07T06:37:12;10.23;;;4.88;;
8831;SDS011;4452;50.756;4.472;2023-05-07T06:39:38;12.25;;;4.70;;
8831;SDS011;4452;50.756;4.472;2023-05-07T06:42:03;9.45;;;4.65;;
8831;SDS011;4452;50.756;4.472;2023-05-07T06:44:29;11.35;;;5.18;;
8831;SDS011;4452;50.756;4.472;2023-05-07T06:46:56;9.55;;;4.82;;
8831;SDS011;4452;50.756;4.472;2023-05-07T06:49:22;12.80;;;5.57;;
8831;SDS011;4452;50.756;4.472;2023-05-07T06:51:47;10.38;;;5.28;;
8831;SDS011;4452;50.756;4.472;2023-05-07T06:54:13;13.73;;;5.28;;
8831;SDS011;4452;50.756;4.472;2023-05-07T06:56:39;12.02;;;5.63;;
8831;SDS011;4452;50.756;4.472;2023-05-07T06:59:05;14.38;;;5.90;;
8831;SDS011;4452;50.756;4.472;2023-05-07T07:01:31;10.13;;;5.70;;
8831;SDS011;4452;50.756;4.472;2023-05-07T07:03:57;9.52;;;5.85;;
8831;SDS011;4452;50.756;4.472;2023-05-07T07:06:23;14.82;;;6.50;;
8831;SDS011;4452;50.756;4.472;2023-05-07T07:08:48;11.45;;;6.25;;
8831;SDS011;4452;50.756;4.472;2023-05-07T07:11:14;12.13;;;6.13;;
8831;SDS011;4452;50.756;4.472;2023-05-07T07:13:40;16.83;;;6.32;;
8831;SDS011;4452;50.756;4.472;2023-05-07T07:16:07;13.55;;;6.70;;
8831;SDS011;4452;50.756;4.472;2023-05-07T07:18:33;15.73;;;6.72;;
8831;SDS011;4452;50.756;4.472;2023-05-07T07:20:59;15.80;;;7.10;;
8831;SDS011;4452;50.756;4.472;2023-05-07T07:23:24;18.95;;;7.57;;
8831;SDS011;4452;50.756;4.472;2023-05-07T07:25:50;13.25;;;6.95;;
8831;SDS011;4452;50.756;4.472;2023-05-07T07:28:16;18.42;;;7.50;;
8831;SDS011;4452;50.756;4.472;2023-05-07T07:30:42;18.77;;;7.20;;
8831;SDS011;4452;50.756;4.472;2023-05-07T07:33:08;12.85;;;6.80;;
8831;SDS011;4452;50.756;4.472;2023-05-07T07:35:33;14.02;;;7.50;;
8831;SDS011;4452;50.756;4.472;2023-05-07T07:37:59;19.10;;;7.65;;
8831;SDS011;4452;50.756;4.472;2023-05-07T07:40:26;14.95;;;7.15;;
8831;SDS011;4452;50.756;4.472;2023-05-07T07:42:52;20.80;;;7.75;;
8831;SDS011;4452;50.756;4.472;2023-05-07T07:45:18;13.80;;;6.55;;
8831;SDS011;4452;50.756;4.472;2023-05-07T07:47:44;17.77;;;7.25;;
8831;SDS011;4452;50.756;4.472;2023-05-07T07:50:10;15.80;;;7.07;;
8831;SDS011;4452;50.756;4.472;2023-05-07T07:52:36;17.48;;;7.32;;
8831;SDS011;4452;50.756;4.472;2023-05-07T07:55:02;20.00;;;7.72;;
8831;SDS011;4452;50.756;4.472;2023-05-07T07:57:28;14.15;;;7.55;;
8831;SDS011;4452;50.756;4.472;2023-05-07T07:59:54;12.40;;;7.30;;
8831;SDS011;4452;50.756;4.472;2023-05-07T08:02:19;13.68;;;7.43;;
8831;SDS011;4452;50.756;4.472;2023-05-07T08:04:45;18.83;;;8.00;;
8831;SDS011;4452;50.756;4.472;2023-05-07T08:07:11;14.55;;;8.30;;
8831;SDS011;4452;50.756;4.472;2023-05-07T08:09:37;13.25;;;7.13;;
8831;SDS011;4452;50.756;4.472;2023-05-07T08:12:03;17.90;;;7.22;;
8831;SDS011;4452;50.756;4.472;2023-05-07T08:14:32;12.20;;;7.03;;
8831;SDS011;4452;50.756;4.472;2023-05-07T08:16:59;22.20;;;7.70;;
8831;SDS011;4452;50.756;4.472;2023-05-07T08:19:24;14.85;;;7.32;;
8831;SDS011;4452;50.756;4.472;2023-05-07T08:21:50;17.05;;;7.75;;
8831;SDS011;4452;50.756;4.472;2023-05-07T08:24:16;13.48;;;8.00;;
8831;SDS011;4452;50.756;4.472;2023-05-07T08:26:43;13.80;;;7.80;;
8831;SDS011;4452;50.756;4.472;2023-05-07T08:29:09;17.38;;;8.02;;
8831;SDS011;4452;50.756;4.472;2023-05-07T08:31:35;18.30;;;8.10;;
8831;SDS011;4452;50.756;4.472;2023-05-07T08:34:00;13.20;;;7.57;;
8831;SDS011;4452;50.756;4.472;2023-05-07T08:36:26;11.52;;;7.05;;
8831;SDS011;4452;50.756;4.472;2023-05-07T08:38:53;16.38;;;7.28;;
8831;SDS011;4452;50.756;4.472;2023-05-07T08:41:19;14.68;;;7.28;;
8831;SDS011;4452;50.756;4.472;2023-05-07T08:43:49;15.38;;;6.65;;
8831;SDS011;4452;50.756;4.472;2023-05-07T08:46:19;15.50;;;6.60;;
8831;SDS011;4452;50.756;4.472;2023-05-07T08:48:51;16.65;;;6.55;;
8831;SDS011;4452;50.756;4.472;2023-05-07T08:51:18;9.07;;;6.50;;
8831;SDS011;4452;50.756;4.472;2023-05-07T08:53:45;14.85;;;6.55;;
8831;SDS011;4452;50.756;4.472;2023-05-07T08:56:16;11.10;;;6.07;;
8831;SDS011;4452;50.756;4.472;2023-05-07T08:58:43;16.23;;;6.20;;
8831;SDS011;4452;50.756;4.472;2023-05-07T09:01:09;13.35;;;5.93;;
8831;SDS011;4452;50.756;4.472;2023-05-07T09:03:38;12.55;;;6.03;;
8831;SDS011;4452;50.756;4.472;2023-05-07T09:06:04;10.07;;;5.53;;
8831;SDS011;4452;50.756;4.472;2023-05-07T09:08:32;12.05;;;5.10;;
8831;SDS011;4452;50.756;4.472;2023-05-07T09:10:58;8.90;;;5.22;;
8831;SDS011;4452;50.756;4.472;2023-05-07T09:13:24;13.55;;;5.28;;
8831;SDS011;4452;50.756;4.472;2023-05-07T09:15:52;9.20;;;5.10;;
8831;SDS011;4452;50.756;4.472;2023-05-07T09:18:17;10.30;;;5.53;;
8831;SDS011;4452;50.756;4.472;2023-05-07T09:20:43;13.00;;;5.80;;
8831;SDS011;4452;50.756;4.472;2023-05-07T09:23:09;9.13;;;5.40;;
8831;SDS011;4452;50.756;4.472;2023-05-07T09:25:35;12.20;;;5.43;;
8831;SDS011;4452;50.756;4.472;2023-05-07T09:28:02;10.95;;;5.43;;
8831;SDS011;4452;50.756;4.472;2023-05-07T09:30:30;11.25;;;5.30;;
8831;SDS011;4452;50.756;4.472;2023-05-07T09:32:57;11.85;;;5.32;;
8831;SDS011;4452;50.756;4.472;2023-05-07T09:35:24;8.82;;;5.25;;
8831;SDS011;4452;50.756;4.472;2023-05-07T09:37:56;6.90;;;4.97;;
8831;SDS011;4452;50.756;4.472;2023-05-07T09:40:24;9.27;;;4.38;;
8831;SDS011;4452;50.756;4.472;2023-05-07T09:42:51;8.88;;;4.88;;
8831;SDS011;4452;50.756;4.472;2023-05-07T09:45:21;9.02;;;4.50;;
8831;SDS011;4452;50.756;4.472;2023-05-07T09:47:48;9.85;;;5.25;;
8831;SDS011;4452;50.756;4.472;2023-05-07T09:50:17;8.63;;;4.97;;
8831;SDS011;4452;50.756;4.472;2023-05-07T09:52:45;5.45;;;4.35;;
8831;SDS011;4452;50.756;4.472;2023-05-07T09:55:11;7.47;;;4.70;;
8831;SDS011;4452;50.756;4.472;2023-05-07T09:57:37;9.80;;;5.00;;
8831;SDS011;4452;50.756;4.472;2023-05-07T10:00:05;11.23;;;4.30;;
8831;SDS011;4452;50.756;4.472;2023-05-07T10:02:33;9.70;;;4.55;;
8831;SDS011;4452;50.756;4.472;2023-05-07T10:05:01;12.07;;;4.30;;
8831;SDS011;4452;50.756;4.472;2023-05-07T10:07:28;10.23;;;5.20;;
8831;SDS011;4452;50.756;4.472;2023-05-07T10:09:55;8.88;;;5.15;;
8831;SDS011;4452;50.756;4.472;2023-05-07T10:12:21;8.70;;;4.88;;
8831;SDS011;4452;50.756;4.472;2023-05-07T10:14:47;5.10;;;3.90;;
8831;SDS011;4452;50.756;4.472;2023-05-07T10:17:13;8.80;;;4.80;;
8831;SDS011;4452;50.756;4.472;2023-05-07T10:19:42;7.28;;;4.97;;
8831;SDS011;4452;50.756;4.472;2023-05-07T10:22:11;7.80;;;4.85;;
8831;SDS011;4452;50.756;4.472;2023-05-07T10:24:38;11.75;;;5.43;;
8831;SDS011;4452;50.756;4.472;2023-05-07T10:27:05;7.72;;;5.05;;
8831;SDS011;4452;50.756;4.472;2023-05-07T10:32:37;8.25;;;5.40;;
8831;SDS011;4452;50.756;4.472;2023-05-07T10:35:31;10.13;;;5.30;;
8831;SDS011;4452;50.756;4.472;2023-05-07T10:38:01;7.53;;;5.18;;
8831;SDS011;4452;50.756;4.472;2023-05-07T10:40:27;11.65;;;5.05;;
8831;SDS011;4452;50.756;4.472;2023-05-07T10:43:01;10.55;;;5.55;;
8831;SDS011;4452;50.756;4.472;2023-05-07T10:45:29;7.43;;;4.90;;
8831;SDS011;4452;50.756;4.472;2023-05-07T10:50:37;7.57;;;4.75;;
8831;SDS011;4452;50.756;4.472;2023-05-07T10:55:42;7.53;;;4.90;;
8831;SDS011;4452;50.756;4.472;2023-05-07T11:00:47;8.60;;;4.45;;
8831;SDS011;4452;50.756;4.472;2023-05-07T11:03:13;9.60;;;4.18;;
8831;SDS011;4452;50.756;4.472;2023-05-07T11:05:40;9.63;;;4.68;;
8831;SDS011;4452;50.756;4.472;2023-05-07T11:08:07;6.30;;;4.05;;
8831;SDS011;4452;50.756;4.472;2023-05-07T11:10:52;7.88;;;4.15;;
8831;SDS011;4452;50.756;4.472;2023-05-07T11:13:40;6.57;;;3.92;;
8831;SDS011;4452;50.756;4.472;2023-05-07T11:16:19;6.60;;;4.18;;
8831;SDS011;4452;50.756;4.472;2023-05-07T11:18:51;6.00;;;3.88;;
8831;SDS011;4452;50.756;4.472;2023-05-07T11:21:31;5.15;;;3.50;;
8831;SDS011;4452;50.756;4.472;2023-05-07T11:23:58;7.82;;;4.28;;
8831;SDS011;4452;50.756;4.472;2023-05-07T11:26:24;7.50;;;4.10;;
8831;SDS011;4452;50.756;4.472;2023-05-07T11:28:51;6.55;;;4.20;;
8831;SDS011;4452;50.756;4.472;2023-05-07T11:31:22;9.05;;;4.38;;
8831;SDS011;4452;50.756;4.472;2023-05-07T11:33:49;4.97;;;3.55;;
8831;SDS011;4452;50.756;4.472;2023-05-07T11:36:15;5.22;;;3.97;;
8831;SDS011;4452;50.756;4.472;2023-05-07T11:38:41;6.32;;;3.85;;
8831;SDS011;4452;50.756;4.472;2023-05-07T11:41:07;10.18;;;3.90;;
8831;SDS011;4452;50.756;4.472;2023-05-07T11:43:33;7.13;;;4.25;;
8831;SDS011;4452;50.756;4.472;2023-05-07T11:48:36;6.80;;;3.90;;
8831;SDS011;4452;50.756;4.472;2023-05-07T11:51:02;6.55;;;3.97;;
8831;SDS011;4452;50.756;4.472;2023-05-07T11:53:37;5.57;;;4.00;;
8831;SDS011;4452;50.756;4.472;2023-05-07T11:56:10;6.25;;;3.67;;
8831;SDS011;4452;50.756;4.472;2023-05-07T12:01:07;6.88;;;4.07;;
8831;SDS011;4452;50.756;4.472;2023-05-07T12:03:37;5.70;;;4.13;;
8831;SDS011;4452;50.756;4.472;2023-05-07T12:06:11;4.88;;;3.90;;
8831;SDS011;4452;50.756;4.472;2023-05-07T12:08:41;4.63;;;3.70;;
8831;SDS011;4452;50.756;4.472;2023-05-07T12:11:22;5.03;;;3.38;;
8831;SDS011;4452;50.756;4.472;2023-05-07T12:13:49;5.32;;;4.13;;
8831;SDS011;4452;50.756;4.472;2023-05-07T12:16:14;6.30;;;4.22;;
8831;SDS011;4452;50.756;4.472;2023-05-07T12:18:41;5.43;;;4.13;;
8831;SDS011;4452;50.756;4.472;2023-05-07T12:21:06;6.05;;;4.32;;
8831;SDS011;4452;50.756;4.472;2023-05-07T12:23:33;5.75;;;4.45;;
8831;SDS011;4452;50.756;4.472;2023-05-07T12:26:00;8.18;;;4.63;;
8831;SDS011;4452;50.756;4.472;2023-05-07T12:28:27;5.88;;;4.40;;
8831;SDS011;4452;50.756;4.472;2023-05-07T12:30:54;8.25;;;4.60;;
8831;SDS011;4452;50.756;4.472;2023-05-07T12:33:24;4.68;;;4.10;;
8831;SDS011;4452;50.756;4.472;2023-05-07T12:35:50;4.90;;;4.43;;
8831;SDS011;4452;50.756;4.472;2023-05-07T12:38:19;5.60;;;4.70;;
8831;SDS011;4452;50.756;4.472;2023-05-07T12:40:45;6.90;;;4.68;;
8831;SDS011;4452;50.756;4.472;2023-05-07T12:43:23;8.93;;;4.82;;
8831;SDS011;4452;50.756;4.472;2023-05-07T12:45:50;9.68;;;5.80;;
8831;SDS011;4452;50.756;4.472;2023-05-07T12:48:19;7.35;;;5.18;;
8831;SDS011;4452;50.756;4.472;2023-05-07T12:50:48;7.47;;;5.40;;
8831;SDS011;4452;50.756;4.472;2023-05-07T12:53:17;5.55;;;5.00;;
8831;SDS011;4452;50.756;4.472;2023-05-07T12:55:49;6.70;;;5.50;;
8831;SDS011;4452;50.756;4.472;2023-05-07T12:58:18;10.55;;;5.80;;
8831;SDS011;4452;50.756;4.472;2023-05-07T13:00:52;9.77;;;6.25;;
8831;SDS011;4452;50.756;4.472;2023-05-07T13:03:25;7.88;;;6.45;;
8831;SDS011;4452;50.756;4.472;2023-05-07T13:08:27;8.07;;;7.28;;
8831;SDS011;4452;50.756;4.472;2023-05-07T13:10:58;10.15;;;7.70;;
8831;SDS011;4452;50.756;4.472;2023-05-07T13:13:25;11.73;;;7.20;;
8831;SDS011;4452;50.756;4.472;2023-05-07T13:15:51;10.25;;;7.70;;
8831;SDS011;4452;50.756;4.472;2023-05-07T13:18:17;10.85;;;7.18;;
8831;SDS011;4452;50.756;4.472;2023-05-07T13:20:42;8.40;;;7.35;;
8831;SDS011;4452;50.756;4.472;2023-05-07T13:23:08;8.85;;;7.32;;
8831;SDS011;4452;50.756;4.472;2023-05-07T13:25:34;8.90;;;7.55;;
8831;SDS011;4452;50.756;4.472;2023-05-07T13:28:00;9.68;;;7.63;;
8831;SDS011;4452;50.756;4.472;2023-05-07T13:30:25;8.63;;;6.70;;
8831;SDS011;4452;50.756;4.472;2023-05-07T13:32:54;8.10;;;7.20;;
8831;SDS011;4452;50.756;4.472;2023-05-07T13:35:20;9.13;;;7.53;;
8831;SDS011;4452;50.756;4.472;2023-05-07T13:37:46;9.07;;;8.02;;
8831;SDS011;4452;50.756;4.472;2023-05-07T13:40:14;9.05;;;8.15;;
8831;SDS011;4452;50.756;4.472;2023-05-07T13:42:40;9.25;;;8.20;;
8831;SDS011;4452;50.756;4.472;2023-05-07T13:45:06;8.73;;;7.90;;
8831;SDS011;4452;50.756;4.472;2023-05-07T13:47:32;9.98;;;8.23;;
8831;SDS011;4452;50.756;4.472;2023-05-07T13:49:59;8.98;;;8.00;;
8831;SDS011;4452;50.756;4.472;2023-05-07T13:52:24;8.40;;;7.38;;
8831;SDS011;4452;50.756;4.472;2023-05-07T13:54:50;7.72;;;6.47;;
8831;SDS011;4452;50.756;4.472;2023-05-07T13:57:17;8.98;;;6.45;;
8831;SDS011;4452;50.756;4.472;2023-05-07T13:59:43;9.10;;;7.10;;
8831;SDS011;4452;50.756;4.472;2023-05-07T14:02:09;12.85;;;7.78;;
8831;SDS011;4452;50.756;4.472;2023-05-07T14:04:34;7.55;;;6.78;;
8831;SDS011;4452;50.756;4.472;2023-05-07T14:07:00;9.75;;;6.88;;
8831;SDS011;4452;50.756;4.472;2023-05-07T14:09:26;8.73;;;6.90;;
8831;SDS011;4452;50.756;4.472;2023-05-07T14:11:52;8.13;;;6.97;;
8831;SDS011;4452;50.756;4.472;2023-05-07T14:14:18;8.60;;;7.38;;
8831;SDS011;4452;50.756;4.472;2023-05-07T14:16:44;13.13;;;7.68;;
8831;SDS011;4452;50.756;4.472;2023-05-07T14:19:12;9.32;;;8.32;;
8831;SDS011;4452;50.756;4.472;2023-05-07T14:21:38;10.60;;;7.40;;
8831;SDS011;4452;50.756;4.472;2023-05-07T14:24:05;10.90;;;8.25;;
8831;SDS011;4452;50.756;4.472;2023-05-07T14:26:32;9.30;;;7.80;;
8831;SDS011;4452;50.756;4.472;2023-05-07T14:28:58;8.57;;;7.68;;
8831;SDS011;4452;50.756;4.472;2023-05-07T14:31:24;8.70;;;7.75;;
8831;SDS011;4452;50.756;4.472;2023-05-07T14:33:50;11.57;;;8.20;;
8831;SDS011;4452;50.756;4.472;2023-05-07T14:36:16;9.52;;;8.52;;
8831;SDS011;4452;50.756;4.472;2023-05-07T14:38:45;13.00;;;8.82;;
8831;SDS011;4452;50.756;4.472;2023-05-07T14:41:11;9.85;;;8.07;;
8831;SDS011;4452;50.756;4.472;2023-05-07T14:43:37;11.05;;;8.43;;
8831;SDS011;4452;50.756;4.472;2023-05-07T14:46:02;10.95;;;8.25;;
8831;SDS011;4452;50.756;4.472;2023-05-07T14:48:28;11.27;;;7.95;;
8831;SDS011;4452;50.756;4.472;2023-05-07T14:50:54;10.43;;;8.05;;
8831;SDS011;4452;50.756;4.472;2023-05-07T14:53:19;12.70;;;8.93;;
8831;SDS011;4452;50.756;4.472;2023-05-07T14:55:46;10.25;;;8.38;;
8831;SDS011;4452;50.756;4.472;2023-05-07T14:58:12;9.15;;;7.97;;
8831;SDS011;4452;50.756;4.472;2023-05-07T15:00:38;11.07;;;8.68;;
8831;SDS011;4452;50.756;4.472;2023-05-07T15:03:08;11.40;;;9.02;;
8831;SDS011;4452;50.756;4.472;2023-05-07T15:05:35;9.18;;;8.23;;
8831;SDS011;4452;50.756;4.472;2023-05-07T15:08:01;10.32;;;9.07;;
8831;SDS011;4452;50.756;4.472;2023-05-07T15:10:27;14.38;;;10.15;;
8831;SDS011;4452;50.756;4.472;2023-05-07T15:12:53;12.93;;;9.05;;
8831;SDS011;4452;50.756;4.472;2023-05-07T15:15:19;16.40;;;9.48;;
8831;SDS011;4452;50.756;4.472;2023-05-07T15:17:45;13.63;;;9.52;;
8831;SDS011;4452;50.756;4.472;2023-05-07T15:20:10;14.20;;;9.68;;
8831;SDS011;4452;50.756;4.472;2023-05-07T15:22:36;11.20;;;9.85;;
8831;SDS011;4452;50.756;4.472;2023-05-07T15:25:02;13.55;;;10.35;;